sensor_id;sensor_type;location;lat;lon;timestamp;temperature;humidity
29341;DHT22;16337;59.536;13.468;2024-03-17T00:02:23;-0.70;99.90
29341;DHT22;16337;59.536;13.468;2024-03-17T00:04:48;-0.70;99.90
29341;DHT22;16337;59.536;13.468;2024-03-17T00:07:14;-0.70;99.90
29341;DHT22;16337;59.536;13.468;2024-03-17T00:09:41;-0.70;99.90
29341;DHT22;16337;59.536;13.468;2024-03-17T00:12:10;-0.70;99.90
29341;DHT22;16337;59.536;13.468;2024-03-17T00:14:38;-0.80;99.90
29341;DHT22;16337;59.536;13.468;2024-03-17T00:17:04;-0.80;99.90
29341;DHT22;16337;59.536;13.468;2024-03-17T00:19:30;-0.80;99.90
29341;DHT22;16337;59.536;13.468;2024-03-17T00:22:02;-0.80;99.90
29341;DHT22;16337;59.536;13.468;2024-03-17T00:24:27;-0.90;99.90
29341;DHT22;16337;59.536;13.468;2024-03-17T00:27:01;-1.00;99.90
29341;DHT22;16337;59.536;13.468;2024-03-17T00:29:32;-0.90;99.90
29341;DHT22;16337;59.536;13.468;2024-03-17T00:32:06;-1.00;99.90
29341;DHT22;16337;59.536;13.468;2024-03-17T00:34:40;-1.00;99.90
29341;DHT22;16337;59.536;13.468;2024-03-17T00:37:13;-1.00;99.90
29341;DHT22;16337;59.536;13.468;2024-03-17T00:39:41;-1.10;99.90
29341;DHT22;16337;59.536;13.468;2024-03-17T00:42:06;-1.10;99.90
29341;DHT22;16337;59.536;13.468;2024-03-17T00:44:35;-1.10;99.90
29341;DHT22;16337;59.536;13.468;2024-03-17T00:47:01;-1.20;99.90
29341;DHT22;16337;59.536;13.468;2024-03-17T00:49:29;-1.20;99.90
29341;DHT22;16337;59.536;13.468;2024-03-17T00:51:55;-1.30;99.90
29341;DHT22;16337;59.536;13.468;2024-03-17T00:54:20;-1.30;99.90
29341;DHT22;16337;59.536;13.468;2024-03-17T00:56:46;-1.40;99.90
29341;DHT22;16337;59.536;13.468;2024-03-17T00:59:11;-1.40;99.90
29341;DHT22;16337;59.536;13.468;2024-03-17T01:01:37;-1.40;99.90
29341;DHT22;16337;59.536;13.468;2024-03-17T01:04:03;-1.40;99.90
29341;DHT22;16337;59.536;13.468;2024-03-17T01:06:28;-1.50;99.90
29341;DHT22;16337;59.536;13.468;2024-03-17T01:08:54;-1.40;99.90
29341;DHT22;16337;59.536;13.468;2024-03-17T01:11:19;-1.50;99.90
29341;DHT22;16337;59.536;13.468;2024-03-17T01:13:45;-1.60;99.90
29341;DHT22;16337;59.536;13.468;2024-03-17T01:16:15;-1.60;99.90
29341;DHT22;16337;59.536;13.468;2024-03-17T01:18:41;-1.60;99.90
29341;DHT22;16337;59.536;13.468;2024-03-17T01:21:08;-1.60;99.90
29341;DHT22;16337;59.536;13.468;2024-03-17T01:23:34;-1.60;99.90
29341;DHT22;16337;59.536;13.468;2024-03-17T01:25:59;-1.60;99.90
29341;DHT22;16337;59.536;13.468;2024-03-17T01:28:25;-1.60;99.90
29341;DHT22;16337;59.536;13.468;2024-03-17T01:30:52;-1.60;99.90
29341;DHT22;16337;59.536;13.468;2024-03-17T01:33:18;-1.60;99.90
29341;DHT22;16337;59.536;13.468;2024-03-17T01:35:43;-1.60;99.90
29341;DHT22;16337;59.536;13.468;2024-03-17T01:38:09;-1.60;99.90
29341;DHT22;16337;59.536;13.468;2024-03-17T01:40:38;-1.50;99.90
29341;DHT22;16337;59.536;13.468;2024-03-17T01:43:04;-1.60;99.90
29341;DHT22;16337;59.536;13.468;2024-03-17T01:45:32;-1.60;99.90
29341;DHT22;16337;59.536;13.468;2024-03-17T01:47:59;-1.60;99.90
29341;DHT22;16337;59.536;13.468;2024-03-17T01:50:33;-1.60;99.90
29341;DHT22;16337;59.536;13.468;2024-03-17T01:53:02;-1.50;99.90
29341;DHT22;16337;59.536;13.468;2024-03-17T01:55:31;-1.50;99.90
29341;DHT22;16337;59.536;13.468;2024-03-17T01:57:58;-1.50;99.90
29341;DHT22;16337;59.536;13.468;2024-03-17T02:00:23;-1.50;99.90
29341;DHT22;16337;59.536;13.468;2024-03-17T02:02:49;-1.60;99.90
29341;DHT22;16337;59.536;13.468;2024-03-17T02:05:15;-1.60;99.90
29341;DHT22;16337;59.536;13.468;2024-03-17T02:07:41;-1.60;99.90
29341;DHT22;16337;59.536;13.468;2024-03-17T02:10:07;-1.50;99.90
29341;DHT22;16337;59.536;13.468;2024-03-17T02:12:34;-1.50;99.90
29341;DHT22;16337;59.536;13.468;2024-03-17T02:15:04;-1.50;99.90
29341;DHT22;16337;59.536;13.468;2024-03-17T02:17:33;-1.50;99.90
29341;DHT22;16337;59.536;13.468;2024-03-17T02:19:59;-1.50;99.90
29341;DHT22;16337;59.536;13.468;2024-03-17T02:22:26;-1.50;99.90
29341;DHT22;16337;59.536;13.468;2024-03-17T02:24:53;-1.50;99.90
29341;DHT22;16337;59.536;13.468;2024-03-17T02:27:19;-1.60;99.90
29341;DHT22;16337;59.536;13.468;2024-03-17T02:29:44;-1.60;99.90
29341;DHT22;16337;59.536;13.468;2024-03-17T02:32:11;-1.60;99.90
29341;DHT22;16337;59.536;13.468;2024-03-17T02:34:37;-1.60;99.90
29341;DHT22;16337;59.536;13.468;2024-03-17T02:37:04;-1.70;99.90
29341;DHT22;16337;59.536;13.468;2024-03-17T02:39:33;-1.70;99.90
29341;DHT22;16337;59.536;13.468;2024-03-17T02:42:04;-1.80;99.90
29341;DHT22;16337;59.536;13.468;2024-03-17T02:44:31;-1.80;99.90
29341;DHT22;16337;59.536;13.468;2024-03-17T02:47:01;-1.90;99.90
29341;DHT22;16337;59.536;13.468;2024-03-17T02:49:28;-1.80;99.90
29341;DHT22;16337;59.536;13.468;2024-03-17T02:52:01;-1.90;99.90
29341;DHT22;16337;59.536;13.468;2024-03-17T02:54:26;-1.80;99.90
29341;DHT22;16337;59.536;13.468;2024-03-17T02:56:52;-1.90;99.90
29341;DHT22;16337;59.536;13.468;2024-03-17T02:59:18;-1.90;99.90
29341;DHT22;16337;59.536;13.468;2024-03-17T03:01:43;-1.90;99.90
29341;DHT22;16337;59.536;13.468;2024-03-17T03:04:10;-2.00;99.90
29341;DHT22;16337;59.536;13.468;2024-03-17T03:06:37;-2.00;99.90
29341;DHT22;16337;59.536;13.468;2024-03-17T03:09:03;-2.00;99.90
29341;DHT22;16337;59.536;13.468;2024-03-17T03:11:35;-2.10;99.90
29341;DHT22;16337;59.536;13.468;2024-03-17T03:14:00;-2.20;99.90
29341;DHT22;16337;59.536;13.468;2024-03-17T03:16:27;-2.20;99.90
29341;DHT22;16337;59.536;13.468;2024-03-17T03:18:53;-2.20;99.90
29341;DHT22;16337;59.536;13.468;2024-03-17T03:21:19;-2.20;99.90
29341;DHT22;16337;59.536;13.468;2024-03-17T03:23:47;-2.30;99.90
29341;DHT22;16337;59.536;13.468;2024-03-17T03:26:13;-2.40;99.90
29341;DHT22;16337;59.536;13.468;2024-03-17T03:28:39;-2.40;99.90
29341;DHT22;16337;59.536;13.468;2024-03-17T03:31:04;-2.40;99.90
29341;DHT22;16337;59.536;13.468;2024-03-17T03:33:30;-2.50;99.90
29341;DHT22;16337;59.536;13.468;2024-03-17T03:35:56;-2.50;99.90
29341;DHT22;16337;59.536;13.468;2024-03-17T03:38:22;-2.60;99.90
29341;DHT22;16337;59.536;13.468;2024-03-17T03:40:48;-2.60;99.90
29341;DHT22;16337;59.536;13.468;2024-03-17T03:43:14;-2.60;99.90
29341;DHT22;16337;59.536;13.468;2024-03-17T03:45:40;-2.60;99.90
29341;DHT22;16337;59.536;13.468;2024-03-17T03:48:07;-2.60;99.90
29341;DHT22;16337;59.536;13.468;2024-03-17T03:50:37;-2.70;99.90
29341;DHT22;16337;59.536;13.468;2024-03-17T03:53:03;-2.70;99.90
29341;DHT22;16337;59.536;13.468;2024-03-17T03:55:31;-2.70;99.90
29341;DHT22;16337;59.536;13.468;2024-03-17T03:57:56;-2.70;99.90
29341;DHT22;16337;59.536;13.468;2024-03-17T04:00:22;-2.80;99.90
29341;DHT22;16337;59.536;13.468;2024-03-17T04:02:50;-2.90;99.90
29341;DHT22;16337;59.536;13.468;2024-03-17T04:05:17;-2.90;99.90
29341;DHT22;16337;59.536;13.468;2024-03-17T04:07:43;-2.90;99.90
29341;DHT22;16337;59.536;13.468;2024-03-17T04:10:12;-2.90;99.90
29341;DHT22;16337;59.536;13.468;2024-03-17T04:12:38;-3.00;99.90
29341;DHT22;16337;59.536;13.468;2024-03-17T04:15:04;-3.00;99.90
29341;DHT22;16337;59.536;13.468;2024-03-17T04:17:32;-3.00;99.90
29341;DHT22;16337;59.536;13.468;2024-03-17T04:19:58;-3.00;99.90
29341;DHT22;16337;59.536;13.468;2024-03-17T04:22:24;-3.10;99.90
29341;DHT22;16337;59.536;13.468;2024-03-17T04:24:51;-3.20;99.90
29341;DHT22;16337;59.536;13.468;2024-03-17T04:27:20;-3.30;99.90
29341;DHT22;16337;59.536;13.468;2024-03-17T04:29:53;-3.40;99.90
29341;DHT22;16337;59.536;13.468;2024-03-17T04:32:20;-3.40;99.90
29341;DHT22;16337;59.536;13.468;2024-03-17T04:34:46;-3.40;99.90
29341;DHT22;16337;59.536;13.468;2024-03-17T04:37:12;-3.40;99.90
29341;DHT22;16337;59.536;13.468;2024-03-17T04:39:45;-3.50;99.90
29341;DHT22;16337;59.536;13.468;2024-03-17T04:42:15;-3.50;99.90
29341;DHT22;16337;59.536;13.468;2024-03-17T04:44:42;-3.50;99.90
29341;DHT22;16337;59.536;13.468;2024-03-17T04:47:08;-3.50;99.90
29341;DHT22;16337;59.536;13.468;2024-03-17T04:49:36;-3.50;99.90
29341;DHT22;16337;59.536;13.468;2024-03-17T04:52:02;-3.50;99.90
29341;DHT22;16337;59.536;13.468;2024-03-17T04:54:27;-3.60;99.90
29341;DHT22;16337;59.536;13.468;2024-03-17T04:56:53;-3.70;99.90
29341;DHT22;16337;59.536;13.468;2024-03-17T04:59:19;-3.60;99.90
29341;DHT22;16337;59.536;13.468;2024-03-17T05:01:44;-3.70;99.90
29341;DHT22;16337;59.536;13.468;2024-03-17T05:04:10;-3.70;99.90
29341;DHT22;16337;59.536;13.468;2024-03-17T05:06:36;-3.80;99.90
29341;DHT22;16337;59.536;13.468;2024-03-17T05:09:01;-3.80;99.90
29341;DHT22;16337;59.536;13.468;2024-03-17T05:11:27;-3.90;99.90
29341;DHT22;16337;59.536;13.468;2024-03-17T05:13:53;-3.90;99.90
29341;DHT22;16337;59.536;13.468;2024-03-17T05:16:19;-3.80;99.90
29341;DHT22;16337;59.536;13.468;2024-03-17T05:18:49;-3.70;99.90
29341;DHT22;16337;59.536;13.468;2024-03-17T05:21:14;-3.80;99.90
29341;DHT22;16337;59.536;13.468;2024-03-17T05:23:40;-3.80;99.90
29341;DHT22;16337;59.536;13.468;2024-03-17T05:26:06;-3.80;99.90
29341;DHT22;16337;59.536;13.468;2024-03-17T05:28:31;-3.80;99.90
29341;DHT22;16337;59.536;13.468;2024-03-17T05:30:57;-3.90;99.90
29341;DHT22;16337;59.536;13.468;2024-03-17T05:33:25;-4.00;99.90
29341;DHT22;16337;59.536;13.468;2024-03-17T05:35:54;-3.90;99.90
29341;DHT22;16337;59.536;13.468;2024-03-17T05:38:25;-3.80;99.90
29341;DHT22;16337;59.536;13.468;2024-03-17T05:43:23;-3.70;99.90
29341;DHT22;16337;59.536;13.468;2024-03-17T05:45:51;-3.60;99.90
29341;DHT22;16337;59.536;13.468;2024-03-17T05:48:17;-3.50;99.90
29341;DHT22;16337;59.536;13.468;2024-03-17T05:50:43;-3.50;99.90
29341;DHT22;16337;59.536;13.468;2024-03-17T05:53:08;-3.40;99.90
29341;DHT22;16337;59.536;13.468;2024-03-17T05:55:37;-3.30;99.90
29341;DHT22;16337;59.536;13.468;2024-03-17T05:58:03;-3.20;99.90
29341;DHT22;16337;59.536;13.468;2024-03-17T06:00:30;-3.20;99.90
29341;DHT22;16337;59.536;13.468;2024-03-17T06:02:56;-3.20;99.90
29341;DHT22;16337;59.536;13.468;2024-03-17T06:05:22;-3.20;99.90
29341;DHT22;16337;59.536;13.468;2024-03-17T06:07:48;-3.20;99.90
29341;DHT22;16337;59.536;13.468;2024-03-17T06:10:14;-3.10;99.90
29341;DHT22;16337;59.536;13.468;2024-03-17T06:12:40;-3.10;99.90
29341;DHT22;16337;59.536;13.468;2024-03-17T06:15:06;-3.00;99.90
29341;DHT22;16337;59.536;13.468;2024-03-17T06:17:32;-3.00;99.90
29341;DHT22;16337;59.536;13.468;2024-03-17T06:19:58;-3.00;99.90
29341;DHT22;16337;59.536;13.468;2024-03-17T06:22:23;-2.90;99.90
29341;DHT22;16337;59.536;13.468;2024-03-17T06:24:50;-2.90;99.90
29341;DHT22;16337;59.536;13.468;2024-03-17T06:27:15;-2.90;99.90
29341;DHT22;16337;59.536;13.468;2024-03-17T06:29:41;-2.80;99.90
29341;DHT22;16337;59.536;13.468;2024-03-17T06:32:08;-2.80;99.90
29341;DHT22;16337;59.536;13.468;2024-03-17T06:34:34;-2.80;99.90
29341;DHT22;16337;59.536;13.468;2024-03-17T06:36:59;-2.70;99.90
29341;DHT22;16337;59.536;13.468;2024-03-17T06:39:25;-2.60;99.90
29341;DHT22;16337;59.536;13.468;2024-03-17T06:41:51;-2.50;99.90
29341;DHT22;16337;59.536;13.468;2024-03-17T06:44:17;-2.40;99.90
29341;DHT22;16337;59.536;13.468;2024-03-17T06:46:45;-2.30;99.90
29341;DHT22;16337;59.536;13.468;2024-03-17T06:49:12;-2.30;99.90
29341;DHT22;16337;59.536;13.468;2024-03-17T06:51:38;-2.30;99.90
29341;DHT22;16337;59.536;13.468;2024-03-17T06:54:03;-2.30;99.90
29341;DHT22;16337;59.536;13.468;2024-03-17T06:56:29;-2.20;99.90
29341;DHT22;16337;59.536;13.468;2024-03-17T06:58:55;-2.10;99.90
29341;DHT22;16337;59.536;13.468;2024-03-17T07:01:20;-2.00;99.90
29341;DHT22;16337;59.536;13.468;2024-03-17T07:03:46;-2.00;99.90
29341;DHT22;16337;59.536;13.468;2024-03-17T07:06:12;-1.90;99.90
29341;DHT22;16337;59.536;13.468;2024-03-17T07:08:38;-1.90;99.90
29341;DHT22;16337;59.536;13.468;2024-03-17T07:11:06;-1.80;99.90
29341;DHT22;16337;59.536;13.468;2024-03-17T07:13:34;-1.70;99.90
29341;DHT22;16337;59.536;13.468;2024-03-17T07:16:01;-1.70;99.90
29341;DHT22;16337;59.536;13.468;2024-03-17T07:18:28;-1.60;99.90
29341;DHT22;16337;59.536;13.468;2024-03-17T07:20:56;-1.50;99.90
29341;DHT22;16337;59.536;13.468;2024-03-17T07:23:23;-1.40;99.90
29341;DHT22;16337;59.536;13.468;2024-03-17T07:25:56;-1.30;99.90
29341;DHT22;16337;59.536;13.468;2024-03-17T07:28:23;-1.20;99.90
29341;DHT22;16337;59.536;13.468;2024-03-17T07:33:19;-1.10;99.90
29341;DHT22;16337;59.536;13.468;2024-03-17T07:35:49;-0.90;99.90
29341;DHT22;16337;59.536;13.468;2024-03-17T07:38:15;-0.90;99.90
29341;DHT22;16337;59.536;13.468;2024-03-17T07:40:42;-0.80;99.90
29341;DHT22;16337;59.536;13.468;2024-03-17T07:43:08;-0.80;99.90
29341;DHT22;16337;59.536;13.468;2024-03-17T07:45:33;-0.70;99.90
29341;DHT22;16337;59.536;13.468;2024-03-17T07:47:59;-0.60;99.90
29341;DHT22;16337;59.536;13.468;2024-03-17T07:50:24;-0.60;99.90
29341;DHT22;16337;59.536;13.468;2024-03-17T07:52:50;-0.60;99.90
29341;DHT22;16337;59.536;13.468;2024-03-17T07:55:16;-0.50;99.90
29341;DHT22;16337;59.536;13.468;2024-03-17T07:57:41;-0.40;99.90
29341;DHT22;16337;59.536;13.468;2024-03-17T08:00:08;-0.20;99.90
29341;DHT22;16337;59.536;13.468;2024-03-17T08:02:47;-0.10;99.90
29341;DHT22;16337;59.536;13.468;2024-03-17T08:05:16;0.00;99.90
29341;DHT22;16337;59.536;13.468;2024-03-17T08:07:42;0.00;99.90
29341;DHT22;16337;59.536;13.468;2024-03-17T08:10:08;0.10;99.90
29341;DHT22;16337;59.536;13.468;2024-03-17T08:12:34;0.30;99.90
29341;DHT22;16337;59.536;13.468;2024-03-17T08:14:59;0.40;99.90
29341;DHT22;16337;59.536;13.468;2024-03-17T08:17:25;0.30;99.90
29341;DHT22;16337;59.536;13.468;2024-03-17T08:19:51;0.20;99.90
29341;DHT22;16337;59.536;13.468;2024-03-17T08:22:17;0.30;99.90
29341;DHT22;16337;59.536;13.468;2024-03-17T08:24:43;0.50;99.90
29341;DHT22;16337;59.536;13.468;2024-03-17T08:27:09;0.60;99.90
29341;DHT22;16337;59.536;13.468;2024-03-17T08:29:34;0.60;99.90
29341;DHT22;16337;59.536;13.468;2024-03-17T08:32:00;0.70;99.90
29341;DHT22;16337;59.536;13.468;2024-03-17T08:34:26;1.00;99.90
29341;DHT22;16337;59.536;13.468;2024-03-17T08:36:52;1.10;99.90
29341;DHT22;16337;59.536;13.468;2024-03-17T08:39:18;1.20;99.90
29341;DHT22;16337;59.536;13.468;2024-03-17T08:41:44;1.10;99.90
29341;DHT22;16337;59.536;13.468;2024-03-17T08:44:11;1.10;99.90
29341;DHT22;16337;59.536;13.468;2024-03-17T08:46:36;1.30;99.90
29341;DHT22;16337;59.536;13.468;2024-03-17T08:49:02;1.20;99.90
29341;DHT22;16337;59.536;13.468;2024-03-17T08:51:28;1.20;99.90
29341;DHT22;16337;59.536;13.468;2024-03-17T08:53:54;1.50;99.90
29341;DHT22;16337;59.536;13.468;2024-03-17T08:56:20;1.70;99.90
29341;DHT22;16337;59.536;13.468;2024-03-17T08:58:46;1.90;99.90
29341;DHT22;16337;59.536;13.468;2024-03-17T09:01:14;2.00;99.90
29341;DHT22;16337;59.536;13.468;2024-03-17T09:03:40;2.00;99.90
29341;DHT22;16337;59.536;13.468;2024-03-17T09:06:16;2.20;99.90
29341;DHT22;16337;59.536;13.468;2024-03-17T09:08:42;2.40;99.90
29341;DHT22;16337;59.536;13.468;2024-03-17T09:11:16;2.50;99.90
29341;DHT22;16337;59.536;13.468;2024-03-17T09:13:42;2.50;99.90
29341;DHT22;16337;59.536;13.468;2024-03-17T09:16:08;2.60;99.90
29341;DHT22;16337;59.536;13.468;2024-03-17T09:18:36;2.80;99.90
29341;DHT22;16337;59.536;13.468;2024-03-17T09:21:05;2.90;99.90
29341;DHT22;16337;59.536;13.468;2024-03-17T09:23:33;2.90;99.90
29341;DHT22;16337;59.536;13.468;2024-03-17T09:26:01;2.90;99.90
29341;DHT22;16337;59.536;13.468;2024-03-17T09:28:28;2.90;99.90
29341;DHT22;16337;59.536;13.468;2024-03-17T09:30:55;3.00;99.90
29341;DHT22;16337;59.536;13.468;2024-03-17T09:33:25;3.10;99.90
29341;DHT22;16337;59.536;13.468;2024-03-17T09:35:57;3.00;99.90
29341;DHT22;16337;59.536;13.468;2024-03-17T09:38:23;2.80;99.90
29341;DHT22;16337;59.536;13.468;2024-03-17T09:40:50;3.10;99.90
29341;DHT22;16337;59.536;13.468;2024-03-17T09:43:22;3.40;99.90
29341;DHT22;16337;59.536;13.468;2024-03-17T09:45:49;3.50;99.90
29341;DHT22;16337;59.536;13.468;2024-03-17T09:48:16;3.70;99.90
29341;DHT22;16337;59.536;13.468;2024-03-17T09:50:51;3.80;99.90
29341;DHT22;16337;59.536;13.468;2024-03-17T09:53:26;4.00;99.90
29341;DHT22;16337;59.536;13.468;2024-03-17T09:55:54;4.30;99.90
29341;DHT22;16337;59.536;13.468;2024-03-17T09:58:22;4.50;99.90
29341;DHT22;16337;59.536;13.468;2024-03-17T10:00:48;4.50;99.90
29341;DHT22;16337;59.536;13.468;2024-03-17T10:03:48;4.40;99.90
29341;DHT22;16337;59.536;13.468;2024-03-17T10:06:30;4.10;99.90
29341;DHT22;16337;59.536;13.468;2024-03-17T10:08:56;4.10;99.90
29341;DHT22;16337;59.536;13.468;2024-03-17T10:11:33;4.10;99.90
29341;DHT22;16337;59.536;13.468;2024-03-17T10:14:06;4.10;99.90
29341;DHT22;16337;59.536;13.468;2024-03-17T10:16:34;4.00;99.90
29341;DHT22;16337;59.536;13.468;2024-03-17T10:19:07;4.30;99.90
29341;DHT22;16337;59.536;13.468;2024-03-17T10:21:33;4.40;99.90
29341;DHT22;16337;59.536;13.468;2024-03-17T10:24:11;4.50;99.90
29341;DHT22;16337;59.536;13.468;2024-03-17T10:31:53;4.20;99.90
29341;DHT22;16337;59.536;13.468;2024-03-17T10:34:19;4.20;99.90
29341;DHT22;16337;59.536;13.468;2024-03-17T10:36:48;4.30;99.90
29341;DHT22;16337;59.536;13.468;2024-03-17T10:39:27;4.30;99.90
29341;DHT22;16337;59.536;13.468;2024-03-17T10:42:05;4.30;99.90
29341;DHT22;16337;59.536;13.468;2024-03-17T10:44:32;4.30;99.90
29341;DHT22;16337;59.536;13.468;2024-03-17T10:47:00;4.30;99.90
29341;DHT22;16337;59.536;13.468;2024-03-17T10:49:31;4.50;99.90
29341;DHT22;16337;59.536;13.468;2024-03-17T10:52:08;4.80;99.90
29341;DHT22;16337;59.536;13.468;2024-03-17T10:54:40;5.30;99.90
29341;DHT22;16337;59.536;13.468;2024-03-17T10:57:41;5.50;99.90
29341;DHT22;16337;59.536;13.468;2024-03-17T11:00:12;5.50;99.90
29341;DHT22;16337;59.536;13.468;2024-03-17T11:02:43;5.40;99.90
29341;DHT22;16337;59.536;13.468;2024-03-17T11:05:27;5.40;99.90
29341;DHT22;16337;59.536;13.468;2024-03-17T11:07:57;5.30;99.90
29341;DHT22;16337;59.536;13.468;2024-03-17T11:10:33;5.10;99.90
29341;DHT22;16337;59.536;13.468;2024-03-17T11:13:00;5.10;99.90
29341;DHT22;16337;59.536;13.468;2024-03-17T11:20:40;5.60;99.90
29341;DHT22;16337;59.536;13.468;2024-03-17T11:23:06;5.50;99.90
29341;DHT22;16337;59.536;13.468;2024-03-17T11:28:01;5.60;99.90
29341;DHT22;16337;59.536;13.468;2024-03-17T11:30:43;5.70;99.90
29341;DHT22;16337;59.536;13.468;2024-03-17T11:39:00;5.60;99.90
29341;DHT22;16337;59.536;13.468;2024-03-17T11:41:42;5.40;99.90
29341;DHT22;16337;59.536;13.468;2024-03-17T11:46:52;5.90;99.90
29341;DHT22;16337;59.536;13.468;2024-03-17T11:51:47;6.30;99.90
29341;DHT22;16337;59.536;13.468;2024-03-17T11:54:33;6.20;99.90
29341;DHT22;16337;59.536;13.468;2024-03-17T11:59:32;6.50;99.90
29341;DHT22;16337;59.536;13.468;2024-03-17T12:01:59;6.50;99.90
29341;DHT22;16337;59.536;13.468;2024-03-17T12:04:25;6.60;99.90
29341;DHT22;16337;59.536;13.468;2024-03-17T12:06:54;6.60;99.90
29341;DHT22;16337;59.536;13.468;2024-03-17T12:09:21;6.50;99.90
29341;DHT22;16337;59.536;13.468;2024-03-17T12:11:48;6.40;99.90
29341;DHT22;16337;59.536;13.468;2024-03-17T12:14:17;6.50;99.90
29341;DHT22;16337;59.536;13.468;2024-03-17T12:16:51;6.50;99.90
29341;DHT22;16337;59.536;13.468;2024-03-17T12:19:18;6.30;99.90
29341;DHT22;16337;59.536;13.468;2024-03-17T12:21:45;6.40;99.90
29341;DHT22;16337;59.536;13.468;2024-03-17T12:24:19;6.40;99.90
29341;DHT22;16337;59.536;13.468;2024-03-17T12:26:46;6.20;99.90
29341;DHT22;16337;59.536;13.468;2024-03-17T12:29:34;5.90;99.90
29341;DHT22;16337;59.536;13.468;2024-03-17T12:32:25;5.70;99.90
29341;DHT22;16337;59.536;13.468;2024-03-17T12:34:52;5.60;99.90
29341;DHT22;16337;59.536;13.468;2024-03-17T12:37:25;5.50;99.90
29341;DHT22;16337;59.536;13.468;2024-03-17T12:40:00;5.20;99.90
29341;DHT22;16337;59.536;13.468;2024-03-17T12:42:27;5.40;99.90
29341;DHT22;16337;59.536;13.468;2024-03-17T12:44:57;5.50;99.90
29341;DHT22;16337;59.536;13.468;2024-03-17T12:47:28;5.50;99.90
29341;DHT22;16337;59.536;13.468;2024-03-17T12:49:58;5.50;99.90
29341;DHT22;16337;59.536;13.468;2024-03-17T12:52:31;5.50;99.90
29341;DHT22;16337;59.536;13.468;2024-03-17T12:57:46;5.80;99.90
29341;DHT22;16337;59.536;13.468;2024-03-17T13:00:30;5.80;99.90
29341;DHT22;16337;59.536;13.468;2024-03-17T13:03:04;5.90;99.90
29341;DHT22;16337;59.536;13.468;2024-03-17T13:05:31;5.80;99.90
29341;DHT22;16337;59.536;13.468;2024-03-17T13:07:57;5.60;99.90
29341;DHT22;16337;59.536;13.468;2024-03-17T13:10:24;5.40;99.90
29341;DHT22;16337;59.536;13.468;2024-03-17T13:13:04;5.30;99.90
29341;DHT22;16337;59.536;13.468;2024-03-17T13:15:33;5.30;99.90
29341;DHT22;16337;59.536;13.468;2024-03-17T13:18:01;5.40;99.90
29341;DHT22;16337;59.536;13.468;2024-03-17T13:20:27;5.80;99.90
29341;DHT22;16337;59.536;13.468;2024-03-17T13:22:54;5.60;99.90
29341;DHT22;16337;59.536;13.468;2024-03-17T13:25:24;5.20;99.90
29341;DHT22;16337;59.536;13.468;2024-03-17T13:27:52;4.80;99.90
29341;DHT22;16337;59.536;13.468;2024-03-17T13:30:21;4.70;99.90
29341;DHT22;16337;59.536;13.468;2024-03-17T13:32:52;4.70;99.90
29341;DHT22;16337;59.536;13.468;2024-03-17T13:35:27;4.80;99.90
29341;DHT22;16337;59.536;13.468;2024-03-17T13:37:54;4.70;99.90
29341;DHT22;16337;59.536;13.468;2024-03-17T13:40:21;4.70;99.90
29341;DHT22;16337;59.536;13.468;2024-03-17T13:42:49;4.70;99.90
29341;DHT22;16337;59.536;13.468;2024-03-17T13:45:15;4.50;99.90
29341;DHT22;16337;59.536;13.468;2024-03-17T13:47:43;4.50;99.90
29341;DHT22;16337;59.536;13.468;2024-03-17T13:50:11;4.60;99.90
29341;DHT22;16337;59.536;13.468;2024-03-17T13:52:39;4.80;99.90
29341;DHT22;16337;59.536;13.468;2024-03-17T13:55:06;5.20;99.90
29341;DHT22;16337;59.536;13.468;2024-03-17T13:57:34;6.30;99.90
29341;DHT22;16337;59.536;13.468;2024-03-17T14:00:00;7.20;99.90
29341;DHT22;16337;59.536;13.468;2024-03-17T14:02:25;6.70;99.90
29341;DHT22;16337;59.536;13.468;2024-03-17T14:04:51;6.10;99.90
29341;DHT22;16337;59.536;13.468;2024-03-17T14:07:17;6.40;99.90
29341;DHT22;16337;59.536;13.468;2024-03-17T14:09:42;6.20;99.90
29341;DHT22;16337;59.536;13.468;2024-03-17T14:12:08;6.10;99.90
29341;DHT22;16337;59.536;13.468;2024-03-17T14:14:34;7.80;99.90
29341;DHT22;16337;59.536;13.468;2024-03-17T14:17:00;8.00;99.90
29341;DHT22;16337;59.536;13.468;2024-03-17T14:19:26;7.70;99.90
29341;DHT22;16337;59.536;13.468;2024-03-17T14:21:52;6.20;99.90
29341;DHT22;16337;59.536;13.468;2024-03-17T14:24:18;5.20;99.90
29341;DHT22;16337;59.536;13.468;2024-03-17T14:26:44;4.80;99.90
29341;DHT22;16337;59.536;13.468;2024-03-17T14:29:09;4.10;99.90
29341;DHT22;16337;59.536;13.468;2024-03-17T14:31:35;3.60;99.90
29341;DHT22;16337;59.536;13.468;2024-03-17T14:34:05;3.30;99.90
29341;DHT22;16337;59.536;13.468;2024-03-17T14:36:31;3.50;99.90
29341;DHT22;16337;59.536;13.468;2024-03-17T14:39:01;3.40;99.90
29341;DHT22;16337;59.536;13.468;2024-03-17T14:41:30;3.30;99.90
29341;DHT22;16337;59.536;13.468;2024-03-17T14:43:56;3.40;99.90
29341;DHT22;16337;59.536;13.468;2024-03-17T14:46:23;3.20;99.90
29341;DHT22;16337;59.536;13.468;2024-03-17T14:48:49;3.00;99.90
29341;DHT22;16337;59.536;13.468;2024-03-17T14:51:17;2.80;99.90
29341;DHT22;16337;59.536;13.468;2024-03-17T14:53:42;2.70;99.90
29341;DHT22;16337;59.536;13.468;2024-03-17T14:56:14;2.60;99.90
29341;DHT22;16337;59.536;13.468;2024-03-17T14:58:40;2.40;99.90
29341;DHT22;16337;59.536;13.468;2024-03-17T15:01:06;2.30;99.90
29341;DHT22;16337;59.536;13.468;2024-03-17T15:03:34;2.30;99.90
29341;DHT22;16337;59.536;13.468;2024-03-17T15:06:00;2.10;99.90
29341;DHT22;16337;59.536;13.468;2024-03-17T15:08:26;2.10;99.90
29341;DHT22;16337;59.536;13.468;2024-03-17T15:10:54;2.10;99.90
29341;DHT22;16337;59.536;13.468;2024-03-17T15:13:20;2.00;99.90
29341;DHT22;16337;59.536;13.468;2024-03-17T15:15:46;2.00;99.90
29341;DHT22;16337;59.536;13.468;2024-03-17T15:18:13;2.00;99.90
29341;DHT22;16337;59.536;13.468;2024-03-17T15:20:38;2.00;99.90
29341;DHT22;16337;59.536;13.468;2024-03-17T15:23:04;1.90;99.90
29341;DHT22;16337;59.536;13.468;2024-03-17T15:25:30;1.80;99.90
29341;DHT22;16337;59.536;13.468;2024-03-17T15:27:56;1.80;99.90
29341;DHT22;16337;59.536;13.468;2024-03-17T15:30:22;1.90;99.90
29341;DHT22;16337;59.536;13.468;2024-03-17T15:32:51;1.90;99.90
29341;DHT22;16337;59.536;13.468;2024-03-17T15:35:23;1.80;99.90
29341;DHT22;16337;59.536;13.468;2024-03-17T15:37:49;1.90;99.90
29341;DHT22;16337;59.536;13.468;2024-03-17T15:40:15;1.80;99.90
29341;DHT22;16337;59.536;13.468;2024-03-17T15:42:50;1.80;99.90
29341;DHT22;16337;59.536;13.468;2024-03-17T15:45:17;1.80;99.90
29341;DHT22;16337;59.536;13.468;2024-03-17T15:47:46;1.70;99.90
29341;DHT22;16337;59.536;13.468;2024-03-17T15:50:12;1.60;99.90
29341;DHT22;16337;59.536;13.468;2024-03-17T15:52:41;1.70;99.90
29341;DHT22;16337;59.536;13.468;2024-03-17T15:55:08;1.60;99.90
29341;DHT22;16337;59.536;13.468;2024-03-17T15:57:35;1.50;99.90
29341;DHT22;16337;59.536;13.468;2024-03-17T16:00:01;1.50;99.90
29341;DHT22;16337;59.536;13.468;2024-03-17T16:02:27;1.40;99.90